Time;durP1;ratioP1;P1;durP2;ratioP2;P2;SDS_P1;SDS_P2;PMS_P1;PMS_P2;Temp;Humidity;BMP_temperature;BMP_pressure;BME280_temperature;BME280_humidity;BME280_pressure;Samples;Min_cycle;Max_cycle;Signal;HPM_P1;HPM_P2
2023/10/05 00:02:56;;;;;;;5.35;2.60;;;13.80;99.90;;;;;;5052037;28;20242;-74
2023/10/05 00:05:24;;;;;;;7.65;2.95;;;13.80;99.90;;;;;;5051237;28;20230;-76
2023/10/05 00:07:50;;;;;;;9.10;3.50;;;13.70;99.90;;;;;;5047517;28;20237;-76
2023/10/05 00:10:16;;;;;;;7.70;2.78;;;13.70;99.90;;;;;;5030971;28;20215;-76
2023/10/05 00:12:42;;;;;;;7.78;3.45;;;13.70;99.90;;;;;;5047282;28;20212;-76
2023/10/05 00:15:11;;;;;;;6.70;2.92;;;13.70;99.90;;;;;;5047426;28;20186;-76
2023/10/05 00:17:38;;;;;;;8.18;3.20;;;13.70;99.90;;;;;;5049866;28;20207;-76
2023/10/05 00:20:21;;;;;;;5.30;2.97;;;13.70;99.90;;;;;;5051177;28;20716;-76
2023/10/05 00:22:49;;;;;;;7.22;3.55;;;13.70;99.90;;;;;;5047859;28;20219;-76
2023/10/05 00:25:17;;;;;;;6.30;3.42;;;13.60;99.90;;;;;;5033114;28;20661;-76
2023/10/05 00:27:48;;;;;;;9.07;3.13;;;13.60;99.90;;;;;;5047221;28;20286;-76
2023/10/05 00:30:16;;;;;;;5.85;3.20;;;13.60;99.90;;;;;;5028846;28;20646;-75
2023/10/05 00:32:47;;;;;;;9.60;2.83;;;13.60;99.90;;;;;;5044252;28;20207;-76
2023/10/05 00:37:49;;;;;;;9.05;2.80;;;13.60;99.90;;;;;;5049114;28;20205;-76
2023/10/05 00:40:33;;;;;;;6.35;2.22;;;13.60;99.90;;;;;;5048060;28;20785;-76
2023/10/05 00:45:47;;;;;;;7.10;3.35;;;13.50;99.90;;;;;;5046476;28;20327;-76
2023/10/05 00:50:51;;;;;;;7.50;3.30;;;13.60;99.90;;;;;;5050884;28;20210;-76
2023/10/05 00:53:19;;;;;;;6.15;2.95;;;13.60;99.90;;;;;;5029679;28;20907;-76
2023/10/05 00:55:56;;;;;;;11.48;2.70;;;13.60;99.90;;;;;;5032664;28;20204;-76
2023/10/05 00:58:23;;;;;;;7.38;4.18;;;13.60;99.90;;;;;;5019443;28;20225;-76
2023/10/05 01:08:15;;;;;;;8.02;2.53;;;13.60;99.90;;;;;;5047327;28;20595;-76
2023/10/05 01:10:48;;;;;;;6.20;2.72;;;13.60;99.90;;;;;;5040664;28;20238;-75
2023/10/05 01:13:26;;;;;;;8.38;3.85;;;13.60;99.90;;;;;;5046737;28;20302;-76
2023/10/05 01:15:54;;;;;;;4.68;2.78;;;13.70;99.90;;;;;;5046516;28;20293;-76
2023/10/05 01:18:24;;;;;;;6.30;3.72;;;13.60;99.90;;;;;;5048707;28;20187;-74
2023/10/05 01:20:50;;;;;;;8.77;3.05;;;13.70;99.90;;;;;;5049608;28;20199;-75
2023/10/05 01:23:15;;;;;;;5.60;2.67;;;13.60;99.90;;;;;;5048727;28;20630;-75
2023/10/05 01:25:41;;;;;;;7.43;2.95;;;13.60;99.90;;;;;;5050012;28;20207;-76
2023/10/05 01:28:07;;;;;;;8.02;2.85;;;13.60;99.90;;;;;;5050265;28;20227;-75
2023/10/05 01:30:37;;;;;;;5.13;2.60;;;13.50;99.90;;;;;;5032958;28;20175;-75
2023/10/05 01:33:04;;;;;;;7.15;2.50;;;13.50;99.90;;;;;;5032259;28;20202;-75
2023/10/05 01:35:29;;;;;;;7.68;3.10;;;13.50;99.90;;;;;;5049532;28;20215;-75
2023/10/05 01:37:58;;;;;;;6.90;2.92;;;13.60;99.90;;;;;;5049905;28;20254;-75
2023/10/05 01:40:25;;;;;;;7.07;2.92;;;13.60;99.90;;;;;;5047349;28;20265;-75
2023/10/05 01:42:52;;;;;;;4.72;2.40;;;13.60;99.90;;;;;;5035401;28;20208;-76
2023/10/05 01:45:24;;;;;;;6.50;2.85;;;13.60;99.90;;;;;;5031249;28;20227;-75
2023/10/05 01:47:50;;;;;;;7.47;2.60;;;13.60;99.90;;;;;;5044128;28;20167;-75
2023/10/05 01:50:22;;;;;;;4.88;2.78;;;13.60;99.90;;;;;;5031254;28;20215;-76
2023/10/05 01:53:01;;;;;;;5.97;3.08;;;13.60;99.90;;;;;;5045309;28;20268;-75
2023/10/05 01:55:27;;;;;;;9.88;2.55;;;13.60;99.90;;;;;;5048575;28;20207;-76
2023/10/05 01:57:57;;;;;;;8.75;3.85;;;13.60;99.90;;;;;;5048910;28;20207;-73
2023/10/05 02:00:24;;;;;;;6.43;2.40;;;13.60;99.90;;;;;;5048015;28;20176;-76
2023/10/05 02:02:50;;;;;;;6.10;2.47;;;13.60;99.90;;;;;;5049725;28;20194;-76
2023/10/05 02:05:19;;;;;;;6.55;2.78;;;13.60;99.90;;;;;;5031618;28;20211;-75
2023/10/05 02:07:45;;;;;;;7.43;3.00;;;13.60;99.90;;;;;;5031330;28;20286;-75
2023/10/05 02:10:13;;;;;;;5.45;2.85;;;13.60;99.90;;;;;;5045439;28;21046;-75
2023/10/05 02:12:39;;;;;;;7.95;2.25;;;13.60;99.90;;;;;;5020604;28;20629;-75
2023/10/05 02:15:13;;;;;;;5.65;2.35;;;13.60;99.90;;;;;;5030411;28;20258;-75
2023/10/05 02:17:42;;;;;;;4.72;2.03;;;13.60;99.90;;;;;;5046960;28;20227;-76
2023/10/05 02:20:17;;;;;;;5.15;2.47;;;13.60;99.90;;;;;;5030052;28;20203;-75
2023/10/05 02:22:47;;;;;;;8.55;2.47;;;13.70;99.90;;;;;;5029377;28;20218;-75
2023/10/05 02:25:13;;;;;;;9.77;2.55;;;13.70;99.90;;;;;;5039987;28;20297;-75
2023/10/05 02:27:46;;;;;;;6.60;2.40;;;13.70;99.90;;;;;;5047867;28;20231;-75
2023/10/05 02:30:13;;;;;;;4.25;1.92;;;13.80;99.90;;;;;;5022824;28;20176;-75
2023/10/05 02:32:40;;;;;;;5.75;2.70;;;13.80;99.90;;;;;;5050335;28;20207;-75
2023/10/05 02:35:24;;;;;;;5.18;2.25;;;13.80;99.90;;;;;;5050420;28;20741;-76
2023/10/05 02:37:52;;;;;;;4.18;2.90;;;13.80;99.90;;;;;;5050071;28;20298;-75
2023/10/05 02:40:25;;;;;;;8.35;2.72;;;13.80;99.90;;;;;;5052377;28;20212;-75
2023/10/05 02:42:51;;;;;;;6.22;2.47;;;13.90;99.90;;;;;;5029917;28;20686;-75
2023/10/05 02:45:17;;;;;;;4.07;2.25;;;13.90;99.90;;;;;;5032582;28;20199;-75
2023/10/05 02:47:43;;;;;;;8.80;2.72;;;13.90;99.90;;;;;;5051628;28;20278;-75
2023/10/05 02:50:09;;;;;;;6.05;3.17;;;13.80;99.90;;;;;;5033084;28;20219;-75
2023/10/05 02:52:36;;;;;;;15.52;5.35;;;13.80;99.90;;;;;;5051199;28;20266;-75
2023/10/05 02:55:06;;;;;;;7.85;3.30;;;13.80;99.90;;;;;;5033637;28;20610;-73
2023/10/05 02:57:31;;;;;;;9.20;3.72;;;13.80;99.90;;;;;;5051461;28;20246;-74
2023/10/05 02:59:59;;;;;;;8.02;3.25;;;13.80;99.90;;;;;;5035460;28;20215;-73
2023/10/05 03:02:25;;;;;;;9.18;2.83;;;13.80;99.90;;;;;;5034405;28;20641;-74
2023/10/05 03:04:58;;;;;;;8.32;3.33;;;13.80;99.90;;;;;;5048931;28;20270;-74
2023/10/05 03:07:27;;;;;;;6.40;3.60;;;13.80;99.90;;;;;;5046310;28;20235;-72
2023/10/05 03:09:59;;;;;;;5.63;2.88;;;13.90;99.90;;;;;;5030216;28;20315;-72
2023/10/05 03:12:25;;;;;;;6.38;2.45;;;13.90;99.90;;;;;;5031634;28;20250;-72
2023/10/05 03:14:51;;;;;;;7.70;3.17;;;13.90;99.90;;;;;;5035512;28;20599;-74
2023/10/05 03:17:27;;;;;;;5.63;2.33;;;13.90;99.90;;;;;;5052386;28;20258;-75
2023/10/05 03:19:52;;;;;;;11.73;3.10;;;13.90;99.90;;;;;;5050774;28;20214;-74
2023/10/05 03:22:18;;;;;;;6.55;2.92;;;13.90;99.90;;;;;;5052089;28;20291;-74
2023/10/05 03:24:47;;;;;;;6.38;2.58;;;13.90;99.90;;;;;;5052214;28;20302;-74
2023/10/05 03:27:14;;;;;;;6.60;2.13;;;13.90;99.90;;;;;;5044799;28;20184;-74
2023/10/05 03:29:44;;;;;;;7.22;3.13;;;13.90;99.90;;;;;;5049909;28;20740;-75
2023/10/05 03:34:38;;;;;;;11.27;2.90;;;13.90;99.90;;;;;;5050216;28;20211;-74
2023/10/05 03:37:08;;;;;;;7.88;2.58;;;13.90;99.90;;;;;;5028155;28;20709;-74
2023/10/05 03:42:24;;;;;;;4.35;2.30;;;14.00;99.90;;;;;;5043984;28;20198;-73
2023/10/05 03:47:53;;;;;;;4.32;2.28;;;13.90;99.90;;;;;;5013663;28;20646;-74
2023/10/05 03:50:19;;;;;;;4.85;2.00;;;13.90;99.90;;;;;;5050589;28;20215;-74
2023/10/05 03:52:45;;;;;;;6.65;3.10;;;13.90;99.90;;;;;;5056550;28;20770;-74
2023/10/05 03:55:11;;;;;;;6.82;2.75;;;13.90;99.90;;;;;;5033344;28;20941;-74
2023/10/05 03:57:43;;;;;;;9.15;3.33;;;13.90;99.90;;;;;;5044497;28;20304;-74
2023/10/05 04:00:23;;;;;;;4.60;2.08;;;13.90;99.90;;;;;;5049359;28;20652;-74
2023/10/05 04:02:53;;;;;;;4.80;2.35;;;13.90;99.90;;;;;;5047352;28;20207;-74
2023/10/05 04:05:23;;;;;;;6.68;2.22;;;13.80;99.90;;;;;;5031948;28;20645;-74
2023/10/05 04:07:50;;;;;;;5.82;2.40;;;13.80;99.90;;;;;;5032865;28;20587;-75
2023/10/05 04:10:21;;;;;;;6.97;2.65;;;13.70;99.90;;;;;;5050337;28;20208;-74
2023/10/05 04:12:49;;;;;;;8.75;3.42;;;13.70;99.90;;;;;;5047187;28;20200;-74
2023/10/05 04:15:18;;;;;;;4.00;2.17;;;13.70;99.90;;;;;;5047638;28;20203;-74
2023/10/05 04:17:48;;;;;;;8.77;2.95;;;13.70;99.90;;;;;;5049432;28;20295;-74
2023/10/05 04:20:19;;;;;;;10.55;2.33;;;13.70;99.90;;;;;;5031458;28;20686;-74
2023/10/05 04:22:47;;;;;;;5.50;2.60;;;13.70;99.90;;;;;;5024640;28;20772;-74
2023/10/05 04:25:16;;;;;;;5.80;3.55;;;13.70;99.90;;;;;;5031886;28;20219;-74
2023/10/05 04:27:43;;;;;;;6.13;2.80;;;13.70;99.90;;;;;;5031732;28;20756;-74
2023/10/05 04:30:13;;;;;;;8.32;3.08;;;13.70;99.90;;;;;;5048691;28;20271;-74
2023/10/05 04:32:38;;;;;;;8.05;2.78;;;13.70;99.90;;;;;;5046049;28;20370;-74
2023/10/05 04:35:14;;;;;;;4.45;2.30;;;13.70;99.90;;;;;;5047674;28;20687;-74
2023/10/05 04:37:40;;;;;;;5.88;2.42;;;13.70;99.90;;;;;;5028829;28;20218;-74
2023/10/05 04:40:10;;;;;;;6.88;2.47;;;13.70;99.90;;;;;;5048516;28;20780;-74
2023/10/05 04:42:36;;;;;;;6.30;2.05;;;13.70;99.90;;;;;;5045535;28;20638;-74
2023/10/05 04:45:07;;;;;;;10.00;2.85;;;13.70;99.90;;;;;;5032419;28;20204;-74
2023/10/05 04:47:33;;;;;;;5.60;2.58;;;13.70;99.90;;;;;;5044683;28;20764;-74
2023/10/05 04:49:58;;;;;;;5.75;2.60;;;13.70;99.90;;;;;;5048521;28;20254;-74
2023/10/05 04:52:24;;;;;;;10.20;2.70;;;13.70;99.90;;;;;;5029582;28;20236;-74
2023/10/05 04:54:57;;;;;;;4.78;2.20;;;13.80;99.90;;;;;;5049532;28;20203;-75
2023/10/05 04:57:35;;;;;;;3.85;2.30;;;13.80;99.90;;;;;;5049759;28;20202;-74
2023/10/05 05:00:49;;;;;;;5.78;2.88;;;13.80;99.90;;;;;;5047795;28;20266;-74
2023/10/05 05:03:05;;;;;;;10.55;2.70;;;13.80;99.90;;;;;;5047123;28;20246;-74
2023/10/05 05:05:40;;;;;;;6.78;2.63;;;13.80;99.90;;;;;;5041391;28;20702;-74
2023/10/05 05:08:06;;;;;;;4.32;2.13;;;13.80;99.90;;;;;;5029773;28;20705;-74
2023/10/05 05:10:35;;;;;;;5.28;2.20;;;13.80;99.90;;;;;;5048617;28;20215;-75
2023/10/05 05:13:01;;;;;;;10.00;2.72;;;13.80;99.90;;;;;;5044140;28;20239;-75
2023/10/05 05:15:27;;;;;;;9.50;3.15;;;13.80;99.90;;;;;;5047022;28;20207;-74
2023/10/05 05:17:53;;;;;;;6.68;3.03;;;13.80;99.90;;;;;;5044793;28;20172;-72
2023/10/05 05:20:19;;;;;;;4.03;2.53;;;13.80;99.90;;;;;;5048678;28;20219;-74
2023/10/05 05:22:46;;;;;;;7.15;2.80;;;13.80;99.90;;;;;;5047796;28;20273;-75
2023/10/05 05:25:13;;;;;;;10.32;2.47;;;13.80;99.90;;;;;;5050099;28;20564;-75
2023/10/05 05:27:39;;;;;;;10.52;3.10;;;13.80;99.90;;;;;;5045374;28;20694;-75
2023/10/05 05:30:11;;;;;;;7.22;2.35;;;13.80;99.90;;;;;;5047144;28;20180;-74
2023/10/05 05:32:37;;;;;;;5.05;2.47;;;13.80;99.90;;;;;;5040292;28;20295;-75
2023/10/05 05:35:03;;;;;;;8.73;3.03;;;13.80;99.90;;;;;;5048284;28;20208;-74
2023/10/05 05:37:28;;;;;;;6.15;2.40;;;13.80;99.90;;;;;;5031533;28;20277;-72
2023/10/05 05:40:03;;;;;;;7.07;2.42;;;13.90;99.90;;;;;;5047927;28;20211;-73
2023/10/05 05:42:30;;;;;;;9.73;2.85;;;13.90;99.90;;;;;;5042162;28;20689;-73
2023/10/05 05:44:56;;;;;;;10.77;2.55;;;13.90;99.90;;;;;;5050303;28;20562;-74
2023/10/05 05:47:21;;;;;;;6.65;2.67;;;13.90;99.90;;;;;;5025128;28;20207;-75
2023/10/05 05:49:47;;;;;;;9.43;2.78;;;13.90;99.90;;;;;;5048709;28;20641;-75
2023/10/05 05:52:17;;;;;;;9.82;2.70;;;14.00;99.90;;;;;;5050226;28;20215;-74
2023/10/05 05:54:46;;;;;;;11.18;2.58;;;14.00;99.90;;;;;;5042485;28;20199;-74
2023/10/05 05:57:13;;;;;;;8.88;3.83;;;14.00;99.90;;;;;;5041934;28;20168;-75
2023/10/05 05:59:39;;;;;;;5.03;2.85;;;14.00;99.90;;;;;;5044442;28;20211;-74
2023/10/05 06:02:08;;;;;;;9.10;2.95;;;14.10;99.90;;;;;;5047922;28;20247;-75
2023/10/05 06:04:35;;;;;;;7.72;2.90;;;14.20;99.90;;;;;;5048681;28;20207;-74
2023/10/05 06:07:02;;;;;;;7.78;2.95;;;14.20;99.90;;;;;;5051573;28;20219;-74
2023/10/05 06:09:33;;;;;;;7.15;2.38;;;14.30;99.90;;;;;;5053135;28;20171;-74
2023/10/05 06:12:02;;;;;;;7.47;2.70;;;14.30;99.90;;;;;;5033904;28;20191;-74
2023/10/05 06:14:31;;;;;;;7.47;2.67;;;14.30;99.90;;;;;;5048933;28;20301;-75
2023/10/05 06:16:57;;;;;;;7.20;3.08;;;14.40;99.90;;;;;;5034656;28;20211;-74
2023/10/05 06:19:23;;;;;;;9.43;3.13;;;14.30;99.90;;;;;;5052520;28;20238;-74
2023/10/05 06:21:48;;;;;;;10.57;2.97;;;14.50;99.90;;;;;;5031946;28;20230;-74
2023/10/05 06:24:14;;;;;;;7.47;2.80;;;14.50;99.90;;;;;;5048713;28;20924;-75
2023/10/05 06:26:40;;;;;;;11.05;3.38;;;14.60;99.90;;;;;;5048708;28;20302;-75
2023/10/05 06:29:08;;;;;;;8.30;2.97;;;14.60;99.90;;;;;;5032967;28;20203;-74
2023/10/05 06:31:35;;;;;;;8.70;3.08;;;14.70;99.90;;;;;;5048086;28;20211;-72
2023/10/05 06:34:01;;;;;;;6.65;2.17;;;14.70;99.90;;;;;;5036825;28;20204;-74
2023/10/05 06:36:26;;;;;;;10.10;3.33;;;14.70;99.90;;;;;;5050979;28;20183;-75
2023/10/05 06:38:52;;;;;;;5.60;3.00;;;14.80;99.90;;;;;;5049470;28;20183;-74
2023/10/05 06:41:23;;;;;;;5.78;2.67;;;14.80;99.90;;;;;;5048506;28;20207;-75
2023/10/05 06:43:49;;;;;;;4.90;2.10;;;14.90;99.90;;;;;;5030254;28;20216;-73
2023/10/05 06:46:17;;;;;;;6.93;2.63;;;14.90;99.90;;;;;;5052737;28;20718;-75
2023/10/05 06:48:50;;;;;;;6.68;2.83;;;14.90;99.90;;;;;;5031159;28;20207;-75
2023/10/05 06:51:24;;;;;;;9.98;2.80;;;15.00;99.90;;;;;;5034762;28;20182;-74
2023/10/05 06:53:49;;;;;;;9.52;2.58;;;15.10;99.90;;;;;;5047791;28;20791;-75
2023/10/05 06:56:15;;;;;;;8.50;2.42;;;15.10;99.90;;;;;;5052053;28;20219;-75
2023/10/05 06:58:41;;;;;;;7.25;2.47;;;15.20;99.90;;;;;;5049210;28;20211;-74
2023/10/05 07:01:07;;;;;;;7.93;2.63;;;15.20;99.90;;;;;;5045912;28;20633;-75
2023/10/05 07:03:32;;;;;;;6.47;2.80;;;15.20;99.90;;;;;;5048568;28;20188;-74
2023/10/05 07:05:59;;;;;;;5.75;2.42;;;15.20;99.90;;;;;;5044540;28;20200;-75
2023/10/05 07:08:25;;;;;;;7.22;2.95;;;15.30;99.90;;;;;;5052654;28;20257;-75
2023/10/05 07:10:51;;;;;;;7.22;2.92;;;15.30;99.90;;;;;;5034034;28;20207;-74
2023/10/05 07:13:19;;;;;;;7.85;3.25;;;15.40;99.90;;;;;;5045748;28;20223;-75
2023/10/05 07:15:45;;;;;;;6.93;2.78;;;15.50;99.90;;;;;;5049497;28;20204;-74
2023/10/05 07:18:11;;;;;;;6.57;2.58;;;15.60;99.90;;;;;;5049861;28;20627;-75
2023/10/05 07:20:41;;;;;;;5.72;2.25;;;15.80;99.90;;;;;;5049379;28;20207;-75
2023/10/05 07:23:07;;;;;;;5.85;2.75;;;16.10;99.90;;;;;;5033442;28;20208;-75
2023/10/05 07:25:33;;;;;;;8.30;2.00;;;16.50;99.90;;;;;;5051789;28;20283;-75
2023/10/05 07:27:59;;;;;;;9.02;2.90;;;16.40;99.90;;;;;;5050743;28;20223;-74
2023/10/05 07:30:25;;;;;;;5.10;2.03;;;16.40;99.90;;;;;;5030200;28;20269;-75
2023/10/05 07:32:50;;;;;;;7.15;2.45;;;16.40;99.90;;;;;;5048199;28;20551;-75
2023/10/05 07:35:16;;;;;;;7.55;2.13;;;16.50;99.90;;;;;;5047336;28;20305;-74
2023/10/05 07:37:42;;;;;;;4.63;2.25;;;16.80;99.90;;;;;;5028655;28;20243;-74
2023/10/05 07:40:08;;;;;;;6.55;2.25;;;17.10;99.90;;;;;;5051067;28;20557;-74
2023/10/05 07:42:34;;;;;;;5.47;2.10;;;17.70;99.90;;;;;;5049534;28;20674;-75
2023/10/05 07:45:00;;;;;;;4.15;1.90;;;18.60;99.90;;;;;;5048968;28;20287;-74
2023/10/05 07:47:25;;;;;;;8.02;2.58;;;19.00;99.90;;;;;;5030597;28;20212;-75
2023/10/05 07:49:53;;;;;;;4.45;1.85;;;19.20;99.90;;;;;;5044811;28;20219;-75
2023/10/05 07:52:19;;;;;;;5.97;2.20;;;18.90;99.90;;;;;;5044322;28;20725;-75
2023/10/05 07:54:45;;;;;;;4.53;1.95;;;18.70;99.90;;;;;;5049432;28;20218;-74
2023/10/05 07:57:11;;;;;;;4.30;2.28;;;18.70;99.90;;;;;;5050881;28;20226;-75
2023/10/05 07:59:41;;;;;;;3.70;1.70;;;19.50;99.90;;;;;;5031293;28;20286;-75
2023/10/05 08:02:07;;;;;;;6.30;2.42;;;19.80;99.90;;;;;;5049416;28;20219;-75
2023/10/05 08:04:34;;;;;;;7.70;2.38;;;20.30;99.90;;;;;;5032831;28;20231;-76
2023/10/05 08:06:59;;;;;;;5.32;2.03;;;20.20;99.90;;;;;;5023055;28;20220;-75
2023/10/05 08:09:27;;;;;;;3.85;1.90;;;19.70;99.90;;;;;;5047249;28;20643;-76
2023/10/05 08:11:53;;;;;;;7.00;1.88;;;19.30;99.90;;;;;;5023258;28;20255;-75
2023/10/05 08:14:20;;;;;;;6.97;2.15;;;19.00;99.90;;;;;;5048758;28;20254;-76
2023/10/05 08:16:47;;;;;;;6.03;2.03;;;18.60;99.90;;;;;;5044970;28;20208;-75
2023/10/05 08:19:15;;;;;;;5.65;3.13;;;18.00;99.90;;;;;;5033338;28;20211;-76
2023/10/05 08:21:41;;;;;;;3.13;1.63;;;17.60;99.90;;;;;;5029720;28;20234;-76
2023/10/05 08:24:08;;;;;;;5.35;2.08;;;17.30;99.90;;;;;;5030750;28;20206;-76
2023/10/05 08:26:34;;;;;;;7.50;2.50;;;17.20;99.90;;;;;;5049628;28;20705;-76
2023/10/05 08:29:01;;;;;;;9.90;2.05;;;17.10;99.90;;;;;;5028318;28;20291;-75
2023/10/05 08:31:27;;;;;;;4.80;2.25;;;17.10;99.90;;;;;;5029574;28;20717;-75
2023/10/05 08:33:53;;;;;;;4.63;1.92;;;17.10;99.90;;;;;;5046943;28;20216;-74
2023/10/05 08:36:20;;;;;;;4.60;1.83;;;17.30;99.90;;;;;;5049589;28;20210;-76
2023/10/05 08:38:49;;;;;;;8.18;2.50;;;17.30;99.90;;;;;;5050445;28;20278;-74
2023/10/05 08:41:41;;;;;;;5.15;1.75;;;17.10;99.90;;;;;;5029192;28;20211;-76
2023/10/05 08:44:15;;;;;;;4.22;1.83;;;17.40;99.90;;;;;;5024091;28;20223;-76
2023/10/05 08:46:43;;;;;;;4.47;2.17;;;17.70;99.90;;;;;;5048859;28;20215;-76
2023/10/05 08:49:12;;;;;;;7.13;3.05;;;17.80;99.90;;;;;;5045574;28;20238;-76
2023/10/05 08:51:39;;;;;;;5.35;1.80;;;17.80;99.90;;;;;;5027593;28;20302;-76
2023/10/05 08:54:09;;;;;;;7.03;2.55;;;18.10;99.90;;;;;;5024218;28;20206;-76
2023/10/05 08:56:47;;;;;;;5.15;2.00;;;18.70;99.90;;;;;;5033486;28;20235;-75
2023/10/05 08:59:13;;;;;;;7.28;2.25;;;19.40;99.90;;;;;;5032666;28;20657;-75
2023/10/05 09:01:43;;;;;;;3.97;2.30;;;19.80;99.90;;;;;;5048169;28;20234;-75
2023/10/05 09:06:56;;;;;;;5.47;2.40;;;19.90;99.90;;;;;;5048847;28;20205;-75
2023/10/05 09:09:54;;;;;;;5.70;1.83;;;19.90;99.90;;;;;;5031449;28;20191;-76
2023/10/05 09:12:37;;;;;;;7.53;2.60;;;19.80;99.90;;;;;;5043917;28;20578;-76
2023/10/05 09:20:33;;;;;;;5.15;2.47;;;18.60;99.90;;;;;;5044520;28;20203;-76
2023/10/05 09:23:04;;;;;;;2.85;1.85;;;18.60;99.90;;;;;;5030183;28;20212;-76
2023/10/05 09:25:38;;;;;;;10.75;2.65;;;18.30;99.90;;;;;;5030967;28;20216;-76
2023/10/05 09:28:14;;;;;;;6.32;2.17;;;18.40;99.90;;;;;;5023122;28;20250;-76
2023/10/05 09:30:55;;;;;;;7.00;2.38;;;18.20;99.90;;;;;;5049926;28;20659;-77
2023/10/05 09:33:35;;;;;;;5.78;2.47;;;18.10;99.90;;;;;;5026459;28;20187;-76
2023/10/05 09:36:22;;;;;;;4.60;2.00;;;18.20;99.90;;;;;;5029947;28;20558;-75
2023/10/05 09:38:48;;;;;;;4.50;1.98;;;18.10;99.90;;;;;;5044305;28;20254;-76
2023/10/05 09:41:19;;;;;;;6.93;2.15;;;18.30;99.90;;;;;;5044929;28;20306;-75
2023/10/05 09:43:55;;;;;;;6.97;2.03;;;18.30;99.90;;;;;;5044595;28;20208;-75
2023/10/05 09:46:22;;;;;;;4.75;2.22;;;18.30;99.90;;;;;;5029369;28;20879;-75
2023/10/05 09:48:48;;;;;;;4.97;2.22;;;18.10;99.90;;;;;;5049281;28;20242;-75
2023/10/05 09:51:14;;;;;;;9.93;2.45;;;18.00;99.90;;;;;;5048316;28;20210;-75
2023/10/05 09:53:43;;;;;;;10.05;2.25;;;17.90;99.90;;;;;;5047011;28;20215;-76
2023/10/05 09:56:12;;;;;;;6.70;2.50;;;18.00;99.90;;;;;;5048150;28;20223;-75
2023/10/05 09:58:41;;;;;;;5.30;2.70;;;17.90;99.90;;;;;;5048120;28;20230;-75
2023/10/05 10:01:22;;;;;;;5.25;1.67;;;17.70;99.90;;;;;;5028777;28;20694;-75
2023/10/05 10:03:52;;;;;;;5.75;1.83;;;17.60;99.90;;;;;;5045013;28;20295;-75
2023/10/05 10:06:24;;;;;;;4.97;1.98;;;17.50;99.90;;;;;;5051780;28;20713;-75
2023/10/05 10:08:53;;;;;;;5.43;2.20;;;17.40;99.90;;;;;;5050312;28;20195;-75
2023/10/05 10:11:24;;;;;;;3.30;1.70;;;17.40;99.90;;;;;;5032700;28;20203;-74
2023/10/05 10:14:00;;;;;;;3.05;1.58;;;17.40;99.90;;;;;;5047667;28;20278;-74
2023/10/05 10:16:27;;;;;;;3.80;1.70;;;17.40;99.90;;;;;;5044995;28;20199;-75
2023/10/05 10:19:04;;;;;;;4.22;2.13;;;17.30;99.90;;;;;;5041942;28;20244;-72
2023/10/05 10:21:41;;;;;;;3.72;1.70;;;17.30;99.90;;;;;;5046503;28;20175;-75
2023/10/05 10:24:08;;;;;;;4.07;1.90;;;17.30;99.90;;;;;;5041497;28;20178;-75
2023/10/05 10:26:45;;;;;;;3.83;1.58;;;17.30;99.90;;;;;;5045722;28;20211;-76
2023/10/05 10:29:11;;;;;;;6.03;1.92;;;17.40;99.90;;;;;;5047617;28;20199;-75
2023/10/05 10:31:47;;;;;;;4.10;2.20;;;17.40;99.90;;;;;;5031441;28;20270;-75
2023/10/05 10:35:13;;;;;;;4.57;1.95;;;17.20;99.90;;;;;;5020657;28;20203;-75
2023/10/05 10:37:44;;;;;;;4.95;2.08;;;17.00;99.90;;;;;;5044357;28;20728;-75
2023/10/05 10:45:41;;;;;;;5.10;2.15;;;16.80;99.90;;;;;;5044681;28;20199;-75
2023/10/05 10:48:20;;;;;;;4.90;2.38;;;16.70;99.90;;;;;;5046393;28;20183;-75
2023/10/05 10:50:47;;;;;;;6.07;2.53;;;16.70;99.90;;;;;;5042285;28;20275;-75
2023/10/05 10:53:17;;;;;;;3.97;2.00;;;16.70;99.90;;;;;;5048766;28;20720;-75
2023/10/05 10:55:54;;;;;;;5.95;2.33;;;16.70;99.90;;;;;;5048367;28;20219;-75
2023/10/05 10:58:25;;;;;;;5.70;1.95;;;16.60;99.90;;;;;;5051923;28;20211;-75
2023/10/05 11:01:05;;;;;;;2.53;1.63;;;16.60;99.90;;;;;;5049715;28;20580;-75
2023/10/05 11:03:32;;;;;;;6.35;1.88;;;16.60;99.90;;;;;;5046366;28;20600;-75
2023/10/05 11:05:58;;;;;;;6.05;2.35;;;16.60;99.90;;;;;;5052608;28;20199;-74
2023/10/05 11:08:30;;;;;;;7.53;2.55;;;16.50;99.90;;;;;;5051171;28;20234;-75
2023/10/05 11:11:19;;;;;;;6.00;1.95;;;16.50;99.90;;;;;;5048974;28;20208;-75
2023/10/05 11:14:07;;;;;;;3.97;1.80;;;16.60;99.90;;;;;;5051198;28;20266;-75
2023/10/05 11:16:49;;;;;;;8.10;1.90;;;16.60;99.90;;;;;;5043594;28;20287;-75
2023/10/05 11:19:24;;;;;;;4.20;2.03;;;16.70;99.90;;;;;;5025369;28;20294;-75
2023/10/05 11:21:51;;;;;;;3.78;1.80;;;16.80;99.90;;;;;;5050536;28;20222;-75
2023/10/05 11:24:18;;;;;;;3.42;1.92;;;17.00;99.90;;;;;;5033953;28;20189;-75
2023/10/05 11:29:28;;;;;;;6.65;1.63;;;17.10;99.90;;;;;;5043344;28;20283;-76
2023/10/05 11:32:09;;;;;;;2.67;1.67;;;17.20;99.90;;;;;;5033007;28;20306;-74
2023/10/05 11:34:39;;;;;;;2.72;1.65;;;17.20;99.90;;;;;;5046679;28;20594;-74
2023/10/05 11:37:18;;;;;;;6.47;2.60;;;17.10;99.90;;;;;;5028495;28;20203;-74
2023/10/05 11:39:50;;;;;;;4.47;2.03;;;17.00;99.90;;;;;;5049627;28;20681;-77
2023/10/05 11:42:24;;;;;;;4.38;2.05;;;16.90;99.90;;;;;;5049049;28;20251;-76
2023/10/05 11:44:55;;;;;;;4.82;2.35;;;16.70;99.90;;;;;;5032670;28;20199;-76
2023/10/05 11:47:32;;;;;;;7.75;2.30;;;16.40;99.90;;;;;;5036280;28;20690;-76
2023/10/05 11:50:06;;;;;;;4.97;2.15;;;16.30;99.90;;;;;;5032049;28;20203;-76
2023/10/05 11:52:31;;;;;;;4.78;2.05;;;16.20;99.90;;;;;;5048639;28;20254;-76
2023/10/05 11:54:57;;;;;;;5.47;2.22;;;16.30;99.90;;;;;;5048521;28;20235;-76
2023/10/05 11:57:23;;;;;;;8.07;3.03;;;16.30;99.90;;;;;;5051466;28;22053;-76
2023/10/05 11:59:48;;;;;;;5.78;2.28;;;16.40;99.90;;;;;;5039758;28;20176;-74
2023/10/05 12:02:17;;;;;;;4.32;2.17;;;16.70;99.90;;;;;;5033121;28;20246;-74
2023/10/05 12:04:42;;;;;;;4.18;2.08;;;16.90;99.90;;;;;;5045130;28;20207;-74
2023/10/05 12:07:12;;;;;;;3.78;2.03;;;17.30;99.90;;;;;;5032761;28;20582;-74
2023/10/05 12:09:43;;;;;;;8.02;2.35;;;17.60;99.90;;;;;;5048412;28;20249;-74
2023/10/05 12:12:13;;;;;;;6.45;2.00;;;17.70;99.90;;;;;;5048246;28;20195;-74
2023/10/05 12:14:41;;;;;;;2.92;1.83;;;17.80;99.90;;;;;;5045869;28;20390;-74
2023/10/05 12:17:07;;;;;;;3.20;2.10;;;17.70;99.90;;;;;;5046382;28;20208;-73
2023/10/05 12:19:33;;;;;;;6.80;3.20;;;17.60;99.90;;;;;;5050724;28;20233;-74
2023/10/05 12:22:03;;;;;;;6.25;2.42;;;17.50;99.90;;;;;;5050626;28;20614;-74
2023/10/05 12:24:30;;;;;;;4.63;2.10;;;17.40;99.90;;;;;;5029543;28;20541;-74
2023/10/05 12:26:59;;;;;;;5.18;1.80;;;17.30;99.90;;;;;;5046532;28;20203;-74
2023/10/05 12:29:28;;;;;;;4.22;2.28;;;17.10;99.90;;;;;;5028946;28;20212;-76
2023/10/05 12:31:56;;;;;;;4.95;2.30;;;17.00;99.90;;;;;;5031179;28;20210;-75
2023/10/05 12:34:23;;;;;;;6.00;1.88;;;17.00;99.90;;;;;;5041020;28;20223;-76
2023/10/05 12:36:49;;;;;;;4.43;2.33;;;17.00;99.90;;;;;;5032118;28;20629;-74
2023/10/05 12:39:26;;;;;;;6.75;2.60;;;16.90;99.90;;;;;;5046699;28;20266;-74
2023/10/05 12:41:53;;;;;;;6.10;2.33;;;16.80;99.90;;;;;;5046904;28;20211;-76
2023/10/05 12:44:18;;;;;;;7.03;2.38;;;16.80;99.90;;;;;;5045367;28;20740;-76
2023/10/05 12:46:46;;;;;;;11.02;3.05;;;16.70;99.90;;;;;;5046072;28;20219;-76
2023/10/05 12:49:14;;;;;;;4.13;2.50;;;16.70;99.90;;;;;;5048388;28;20591;-76
2023/10/05 12:51:41;;;;;;;8.48;2.60;;;16.70;99.90;;;;;;5048529;28;20230;-76
2023/10/05 12:54:18;;;;;;;3.90;3.00;;;16.70;99.90;;;;;;5048162;28;20199;-74
2023/10/05 12:56:50;;;;;;;5.20;2.65;;;16.70;99.90;;;;;;5047003;28;20199;-75
2023/10/05 12:59:17;;;;;;;3.65;2.33;;;16.70;99.90;;;;;;5048942;28;20740;-74
2023/10/05 13:01:43;;;;;;;4.65;2.00;;;16.60;99.90;;;;;;5046440;28;20209;-75
2023/10/05 13:04:09;;;;;;;6.03;2.97;;;16.60;99.90;;;;;;5042840;28;20274;-74
2023/10/05 13:06:38;;;;;;;3.53;2.30;;;16.60;99.90;;;;;;5043638;28;20219;-75
2023/10/05 13:09:04;;;;;;;3.22;1.90;;;16.50;99.90;;;;;;5051131;28;20176;-74
2023/10/05 13:11:32;;;;;;;2.28;1.27;;;16.40;99.90;;;;;;5050903;28;20755;-73
2023/10/05 13:13:58;;;;;;;2.10;1.00;;;16.20;99.90;;;;;;5046217;28;20316;-73
2023/10/05 13:16:24;;;;;;;2.92;0.80;;;15.80;99.90;;;;;;5032679;28;20311;-74
2023/10/05 13:18:54;;;;;;;1.45;0.82;;;15.60;99.90;;;;;;5034926;28;20204;-75
2023/10/05 13:21:22;;;;;;;0.80;0.60;;;15.50;99.90;;;;;;5029976;28;20178;-73
2023/10/05 13:23:48;;;;;;;0.50;0.50;;;15.40;99.90;;;;;;5048707;28;20222;-74
2023/10/05 13:26:16;;;;;;;1.05;0.60;;;15.40;99.90;;;;;;5049490;28;20261;-73
2023/10/05 13:28:42;;;;;;;0.88;0.52;;;15.40;99.90;;;;;;5048995;28;20668;-74
2023/10/05 13:31:07;;;;;;;0.80;0.55;;;15.40;99.90;;;;;;5050166;28;20307;-74
2023/10/05 13:33:39;;;;;;;1.25;0.82;;;15.30;99.90;;;;;;5038748;28;20192;-74
2023/10/05 13:36:11;;;;;;;1.48;0.60;;;15.30;99.90;;;;;;5049575;28;20167;-73
2023/10/05 13:38:37;;;;;;;1.67;0.63;;;15.20;99.90;;;;;;5046520;28;20242;-74